sensor_id;sensor_type;location;lat;lon;timestamp;pressure;altitude;pressure_sealevel;temperature;humidity
46710;BME280;32442;51.514;-0.178;2023-02-04T00:01:47;103313.59;;;21.40;39.90
46710;BME280;32442;51.514;-0.178;2023-02-04T00:04:14;103313.25;;;21.36;40.35
46710;BME280;32442;51.514;-0.178;2023-02-04T00:06:42;103314.72;;;21.39;40.10
46710;BME280;32442;51.514;-0.178;2023-02-04T00:09:10;103318.31;;;21.34;40.26
46710;BME280;32442;51.514;-0.178;2023-02-04T00:11:37;103308.41;;;21.32;40.34
46710;BME280;32442;51.514;-0.178;2023-02-04T00:14:04;103313.78;;;21.33;40.11
46710;BME280;32442;51.514;-0.178;2023-02-04T00:16:32;103308.06;;;21.28;40.31
46710;BME280;32442;51.514;-0.178;2023-02-04T00:18:59;103306.34;;;21.27;39.96
46710;BME280;32442;51.514;-0.178;2023-02-04T00:21:26;103307.22;;;21.27;40.47
46710;BME280;32442;51.514;-0.178;2023-02-04T00:23:53;103316.75;;;21.26;40.27
46710;BME280;32442;51.514;-0.178;2023-02-04T00:26:21;103311.31;;;21.20;40.19
46710;BME280;32442;51.514;-0.178;2023-02-04T00:28:48;103311.03;;;21.21;40.56
46710;BME280;32442;51.514;-0.178;2023-02-04T00:31:16;103312.50;;;21.24;40.41
46710;BME280;32442;51.514;-0.178;2023-02-04T00:33:43;103312.16;;;21.20;40.85
46710;BME280;32442;51.514;-0.178;2023-02-04T00:36:11;103324.75;;;21.18;40.73
46710;BME280;32442;51.514;-0.178;2023-02-04T00:38:41;103322.81;;;21.18;40.54
46710;BME280;32442;51.514;-0.178;2023-02-04T00:41:08;103329.28;;;21.19;40.67
46710;BME280;32442;51.514;-0.178;2023-02-04T00:43:34;103329.53;;;21.17;40.97
46710;BME280;32442;51.514;-0.178;2023-02-04T00:46:03;103322.22;;;21.16;41.10
46710;BME280;32442;51.514;-0.178;2023-02-04T00:48:30;103317.44;;;21.17;40.96
46710;BME280;32442;51.514;-0.178;2023-02-04T00:50:56;103315.34;;;21.12;40.84
46710;BME280;32442;51.514;-0.178;2023-02-04T00:53:23;103326.59;;;21.12;41.07
46710;BME280;32442;51.514;-0.178;2023-02-04T00:55:50;103319.28;;;21.11;41.17
46710;BME280;32442;51.514;-0.178;2023-02-04T00:58:17;103331.03;;;21.08;41.24
46710;BME280;32442;51.514;-0.178;2023-02-04T01:00:44;103327.97;;;21.10;41.25
46710;BME280;32442;51.514;-0.178;2023-02-04T01:03:10;103334.09;;;21.07;41.63
46710;BME280;32442;51.514;-0.178;2023-02-04T01:05:37;103330.69;;;21.05;41.45
46710;BME280;32442;51.514;-0.178;2023-02-04T01:08:06;103327.88;;;21.05;41.65
46710;BME280;32442;51.514;-0.178;2023-02-04T01:10:32;103333.50;;;21.05;41.66
46710;BME280;32442;51.514;-0.178;2023-02-04T01:12:59;103326.44;;;21.02;41.93
46710;BME280;32442;51.514;-0.178;2023-02-04T01:15:27;103335.97;;;21.01;41.74
46710;BME280;32442;51.514;-0.178;2023-02-04T01:17:54;103342.94;;;20.99;41.84
46710;BME280;32442;51.514;-0.178;2023-02-04T01:20:24;103346.88;;;20.98;41.88
46710;BME280;32442;51.514;-0.178;2023-02-04T01:22:51;103345.16;;;20.97;41.81
46710;BME280;32442;51.514;-0.178;2023-02-04T01:25:18;103350.78;;;20.97;41.75
46710;BME280;32442;51.514;-0.178;2023-02-04T01:27:45;103343.13;;;20.92;42.00
46710;BME280;32442;51.514;-0.178;2023-02-04T01:30:13;103337.50;;;20.92;42.21
46710;BME280;32442;51.514;-0.178;2023-02-04T01:32:40;103341.91;;;20.88;42.35
46710;BME280;32442;51.514;-0.178;2023-02-04T01:35:07;103347.53;;;20.88;42.43
46710;BME280;32442;51.514;-0.178;2023-02-04T01:37:34;103350.59;;;20.86;42.48
46710;BME280;32442;51.514;-0.178;2023-02-04T01:40:02;103351.09;;;20.83;42.13
46710;BME280;32442;51.514;-0.178;2023-02-04T01:42:29;103352.19;;;20.82;42.58
46710;BME280;32442;51.514;-0.178;2023-02-04T01:44:57;103361.47;;;20.83;42.47
46710;BME280;32442;51.514;-0.178;2023-02-04T01:47:24;103358.91;;;20.81;42.44
46710;BME280;32442;51.514;-0.178;2023-02-04T01:49:52;103361.38;;;20.78;42.84
46710;BME280;32442;51.514;-0.178;2023-02-04T01:52:20;103358.56;;;20.78;42.83
46710;BME280;32442;51.514;-0.178;2023-02-04T01:54:48;103359.19;;;20.80;42.59
46710;BME280;32442;51.514;-0.178;2023-02-04T01:57:15;103360.75;;;20.76;42.87
46710;BME280;32442;51.514;-0.178;2023-02-04T01:59:43;103364.69;;;20.75;42.94
46710;BME280;32442;51.514;-0.178;2023-02-04T02:04:40;103362.75;;;20.75;43.01
46710;BME280;32442;51.514;-0.178;2023-02-04T02:07:07;103355.66;;;20.73;42.65
46710;BME280;32442;51.514;-0.178;2023-02-04T02:09:37;103364.59;;;20.70;43.00
46710;BME280;32442;51.514;-0.178;2023-02-04T02:12:04;103359.22;;;20.68;43.07
46710;BME280;32442;51.514;-0.178;2023-02-04T02:14:32;103356.69;;;20.67;42.86
46710;BME280;32442;51.514;-0.178;2023-02-04T02:16:59;103364.25;;;20.66;42.83
46710;BME280;32442;51.514;-0.178;2023-02-04T02:19:27;103361.94;;;20.63;43.02
46710;BME280;32442;51.514;-0.178;2023-02-04T02:22:01;103361.59;;;20.60;43.43
46710;BME280;32442;51.514;-0.178;2023-02-04T02:24:32;103356.59;;;20.62;43.38
46710;BME280;32442;51.514;-0.178;2023-02-04T02:27:02;103354.63;;;20.62;43.38
46710;BME280;32442;51.514;-0.178;2023-02-04T02:29:31;103354.25;;;20.59;43.50
46710;BME280;32442;51.514;-0.178;2023-02-04T02:31:58;103357.34;;;20.57;43.27
46710;BME280;32442;51.514;-0.178;2023-02-04T02:34:25;103351.94;;;20.56;43.27
46710;BME280;32442;51.514;-0.178;2023-02-04T02:36:53;103362.34;;;20.55;43.30
46710;BME280;32442;51.514;-0.178;2023-02-04T02:39:20;103359.53;;;20.55;43.31
46710;BME280;32442;51.514;-0.178;2023-02-04T02:41:47;103357.81;;;20.54;43.39
46710;BME280;32442;51.514;-0.178;2023-02-04T02:44:14;103359.19;;;20.52;43.45
46710;BME280;32442;51.514;-0.178;2023-02-04T02:46:41;103358.31;;;20.51;43.82
46710;BME280;32442;51.514;-0.178;2023-02-04T02:49:12;103356.03;;;20.48;43.61
46710;BME280;32442;51.514;-0.178;2023-02-04T02:51:41;103361.38;;;20.50;43.92
46710;BME280;32442;51.514;-0.178;2023-02-04T02:56:38;103356.25;;;20.47;43.93
46710;BME280;32442;51.514;-0.178;2023-02-04T02:59:11;103357.34;;;20.46;43.88
46710;BME280;32442;51.514;-0.178;2023-02-04T03:01:38;103349.19;;;20.44;44.08
46710;BME280;32442;51.514;-0.178;2023-02-04T03:04:05;103342.97;;;20.42;43.75
46710;BME280;32442;51.514;-0.178;2023-02-04T03:06:32;103342.97;;;20.42;43.81
46710;BME280;32442;51.514;-0.178;2023-02-04T03:08:59;103346.00;;;20.40;44.14
46710;BME280;32442;51.514;-0.178;2023-02-04T03:11:26;103345.16;;;20.40;43.92
46710;BME280;32442;51.514;-0.178;2023-02-04T03:13:55;103341.75;;;20.38;44.07
46710;BME280;32442;51.514;-0.178;2023-02-04T03:16:23;103343.47;;;20.39;44.17
46710;BME280;32442;51.514;-0.178;2023-02-04T03:18:50;103338.34;;;20.36;44.11
46710;BME280;32442;51.514;-0.178;2023-02-04T03:21:17;103339.47;;;20.35;44.21
46710;BME280;32442;51.514;-0.178;2023-02-04T03:23:44;103331.03;;;20.35;44.12
46710;BME280;32442;51.514;-0.178;2023-02-04T03:26:11;103336.03;;;20.33;44.41
46710;BME280;32442;51.514;-0.178;2023-02-04T03:28:39;103333.47;;;20.31;44.48
46710;BME280;32442;51.514;-0.178;2023-02-04T03:31:06;103331.78;;;20.30;44.37
46710;BME280;32442;51.514;-0.178;2023-02-04T03:33:33;103336.28;;;20.31;44.59
46710;BME280;32442;51.514;-0.178;2023-02-04T03:36:01;103345.19;;;20.28;44.51
46710;BME280;32442;51.514;-0.178;2023-02-04T03:38:28;103330.94;;;20.30;44.50
46710;BME280;32442;51.514;-0.178;2023-02-04T03:40:55;103323.22;;;20.25;44.30
46710;BME280;32442;51.514;-0.178;2023-02-04T03:43:22;103335.31;;;20.26;44.78
46710;BME280;32442;51.514;-0.178;2023-02-04T03:45:49;103335.31;;;20.26;44.60
46710;BME280;32442;51.514;-0.178;2023-02-04T03:48:16;103336.41;;;20.25;44.36
46710;BME280;32442;51.514;-0.178;2023-02-04T03:50:44;103332.13;;;20.22;44.57
46710;BME280;32442;51.514;-0.178;2023-02-04T03:53:11;103336.88;;;20.22;44.80
46710;BME280;32442;51.514;-0.178;2023-02-04T03:55:39;103339.69;;;20.22;44.62
46710;BME280;32442;51.514;-0.178;2023-02-04T03:58:06;103344.72;;;20.20;44.67
46710;BME280;32442;51.514;-0.178;2023-02-04T04:00:33;103343.63;;;20.21;44.70
46710;BME280;32442;51.514;-0.178;2023-02-04T04:03:00;103344.38;;;20.16;44.98
46710;BME280;32442;51.514;-0.178;2023-02-04T04:05:27;103340.44;;;20.17;44.43
46710;BME280;32442;51.514;-0.178;2023-02-04T04:07:54;103343.25;;;20.17;44.50
46710;BME280;32442;51.514;-0.178;2023-02-04T04:10:21;103327.53;;;20.16;45.02
46710;BME280;32442;51.514;-0.178;2023-02-04T04:12:48;103340.69;;;20.16;44.55
46710;BME280;32442;51.514;-0.178;2023-02-04T04:15:15;103330.56;;;20.15;44.89
46710;BME280;32442;51.514;-0.178;2023-02-04T04:17:43;103341.78;;;20.15;44.96
46710;BME280;32442;51.514;-0.178;2023-02-04T04:20:10;103347.28;;;20.10;44.97
46710;BME280;32442;51.514;-0.178;2023-02-04T04:22:38;103360.00;;;20.12;44.91
46710;BME280;32442;51.514;-0.178;2023-02-04T04:25:06;103355.72;;;20.10;44.74
46710;BME280;32442;51.514;-0.178;2023-02-04T04:27:33;103360.22;;;20.11;45.19
46710;BME280;32442;51.514;-0.178;2023-02-04T04:30:01;103355.94;;;20.08;44.95
46710;BME280;32442;51.514;-0.178;2023-02-04T04:32:28;103357.44;;;20.11;45.17
46710;BME280;32442;51.514;-0.178;2023-02-04T04:34:55;103357.66;;;20.09;45.31
46710;BME280;32442;51.514;-0.178;2023-02-04T04:37:23;103366.09;;;20.09;45.37
46710;BME280;32442;51.514;-0.178;2023-02-04T04:39:53;103357.31;;;20.06;45.14
46710;BME280;32442;51.514;-0.178;2023-02-04T04:42:20;103360.34;;;20.04;45.48
46710;BME280;32442;51.514;-0.178;2023-02-04T04:44:46;103360.13;;;20.06;45.52
46710;BME280;32442;51.514;-0.178;2023-02-04T04:47:14;103364.00;;;20.05;45.25
46710;BME280;32442;51.514;-0.178;2023-02-04T04:49:41;103365.97;;;20.04;45.36
46710;BME280;32442;51.514;-0.178;2023-02-04T04:52:08;103368.19;;;20.02;45.50
46710;BME280;32442;51.514;-0.178;2023-02-04T04:54:36;103369.28;;;20.01;45.60
46710;BME280;32442;51.514;-0.178;2023-02-04T04:57:03;103369.28;;;20.01;45.48
46710;BME280;32442;51.514;-0.178;2023-02-04T04:59:30;103374.53;;;19.97;45.96
46710;BME280;32442;51.514;-0.178;2023-02-04T05:01:57;103376.13;;;19.93;45.74
46710;BME280;32442;51.514;-0.178;2023-02-04T05:04:23;103378.44;;;19.96;45.50
46710;BME280;32442;51.514;-0.178;2023-02-04T05:06:50;103385.13;;;19.95;45.64
46710;BME280;32442;51.514;-0.178;2023-02-04T05:09:17;103378.06;;;19.93;45.51
46710;BME280;32442;51.514;-0.178;2023-02-04T05:11:44;103375.50;;;19.91;45.84
46710;BME280;32442;51.514;-0.178;2023-02-04T05:14:13;103381.22;;;19.96;45.82
46710;BME280;32442;51.514;-0.178;2023-02-04T05:16:40;103377.22;;;19.92;45.80
46710;BME280;32442;51.514;-0.178;2023-02-04T05:19:07;103379.16;;;19.92;45.87
46710;BME280;32442;51.514;-0.178;2023-02-04T05:21:33;103376.59;;;19.90;45.63
46710;BME280;32442;51.514;-0.178;2023-02-04T05:24:00;103384.16;;;19.90;45.98
46710;BME280;32442;51.514;-0.178;2023-02-04T05:26:27;103378.81;;;19.88;46.13
46710;BME280;32442;51.514;-0.178;2023-02-04T05:28:57;103388.09;;;19.89;45.98
46710;BME280;32442;51.514;-0.178;2023-02-04T05:31:25;103390.03;;;19.88;45.69
46710;BME280;32442;51.514;-0.178;2023-02-04T05:33:53;103390.75;;;19.84;45.83
46710;BME280;32442;51.514;-0.178;2023-02-04T05:36:20;103391.13;;;19.87;45.98
46710;BME280;32442;51.514;-0.178;2023-02-04T05:38:48;103391.63;;;19.84;45.73
46710;BME280;32442;51.514;-0.178;2023-02-04T05:41:15;103388.56;;;19.86;45.70
46710;BME280;32442;51.514;-0.178;2023-02-04T05:43:42;103397.47;;;19.83;46.12
46710;BME280;32442;51.514;-0.178;2023-02-04T05:46:09;103398.81;;;19.80;45.81
46710;BME280;32442;51.514;-0.178;2023-02-04T05:48:36;103398.81;;;19.80;45.91
46710;BME280;32442;51.514;-0.178;2023-02-04T05:51:03;103397.97;;;19.80;46.07
46710;BME280;32442;51.514;-0.178;2023-02-04T05:53:30;103399.06;;;19.79;45.99
46710;BME280;32442;51.514;-0.178;2023-02-04T05:55:58;103398.19;;;19.78;45.83
46710;BME280;32442;51.514;-0.178;2023-02-04T05:58:25;103399.66;;;19.81;46.04
46710;BME280;32442;51.514;-0.178;2023-02-04T06:00:59;103399.06;;;19.79;46.27
46710;BME280;32442;51.514;-0.178;2023-02-04T06:03:27;103399.28;;;19.77;46.12
46710;BME280;32442;51.514;-0.178;2023-02-04T06:05:55;103402.09;;;19.77;46.09
46710;BME280;32442;51.514;-0.178;2023-02-04T06:08:22;103401.63;;;19.80;46.26
46710;BME280;32442;51.514;-0.178;2023-02-04T06:10:49;103403.69;;;19.73;46.42
46710;BME280;32442;51.514;-0.178;2023-02-04T06:13:17;103404.31;;;19.75;46.06
46710;BME280;32442;51.514;-0.178;2023-02-04T06:15:44;103407.56;;;19.72;46.15
46710;BME280;32442;51.514;-0.178;2023-02-04T06:18:10;103412.31;;;19.72;46.56
46710;BME280;32442;51.514;-0.178;2023-02-04T06:20:38;103405.63;;;19.73;46.29
46710;BME280;32442;51.514;-0.178;2023-02-04T06:23:05;103396.84;;;19.69;46.44
46710;BME280;32442;51.514;-0.178;2023-02-04T06:25:32;103403.56;;;19.68;46.84
46710;BME280;32442;51.514;-0.178;2023-02-04T06:27:58;103422.09;;;19.69;46.59
46710;BME280;32442;51.514;-0.178;2023-02-04T06:30:26;103417.56;;;19.68;46.95
46710;BME280;32442;51.514;-0.178;2023-02-04T06:32:52;103419.28;;;19.69;46.43
46710;BME280;32442;51.514;-0.178;2023-02-04T06:35:19;103414.53;;;19.70;46.41
46710;BME280;32442;51.514;-0.178;2023-02-04T06:37:46;103420.38;;;19.68;46.36
46710;BME280;32442;51.514;-0.178;2023-02-04T06:40:15;103419.78;;;19.66;46.89
46710;BME280;32442;51.514;-0.178;2023-02-04T06:42:43;103424.28;;;19.67;46.32
46710;BME280;32442;51.514;-0.178;2023-02-04T06:45:10;103426.25;;;19.67;46.51
46710;BME280;32442;51.514;-0.178;2023-02-04T06:47:36;103427.06;;;19.67;46.42
46710;BME280;32442;51.514;-0.178;2023-02-04T06:50:03;103431.22;;;19.65;46.45
46710;BME280;32442;51.514;-0.178;2023-02-04T06:52:31;103439.66;;;19.65;46.69
46710;BME280;32442;51.514;-0.178;2023-02-04T06:54:58;103442.69;;;19.63;46.46
46710;BME280;32442;51.514;-0.178;2023-02-04T06:57:25;103445.75;;;19.62;46.80
46710;BME280;32442;51.514;-0.178;2023-02-04T06:59:53;103435.13;;;19.64;46.70
46710;BME280;32442;51.514;-0.178;2023-02-04T07:02:20;103430.38;;;19.64;46.32
46710;BME280;32442;51.514;-0.178;2023-02-04T07:04:47;103442.09;;;19.61;46.78
46710;BME280;32442;51.514;-0.178;2023-02-04T07:07:14;103444.63;;;19.63;46.31
46710;BME280;32442;51.514;-0.178;2023-02-04T07:09:41;103447.19;;;19.64;46.25
46710;BME280;32442;51.514;-0.178;2023-02-04T07:12:08;103435.63;;;19.61;46.29
46710;BME280;32442;51.514;-0.178;2023-02-04T07:14:35;103433.69;;;19.61;46.31
46710;BME280;32442;51.514;-0.178;2023-02-04T07:17:02;103428.06;;;19.61;46.43
46710;BME280;32442;51.514;-0.178;2023-02-04T07:19:29;103431.59;;;19.57;46.21
46710;BME280;32442;51.514;-0.178;2023-02-04T07:21:56;103434.75;;;19.60;46.41
46710;BME280;32442;51.514;-0.178;2023-02-04T07:24:23;103434.75;;;19.60;46.62
46710;BME280;32442;51.514;-0.178;2023-02-04T07:26:53;103435.63;;;19.61;46.80
46710;BME280;32442;51.514;-0.178;2023-02-04T07:29:19;103447.84;;;19.66;46.61
46710;BME280;32442;51.514;-0.178;2023-02-04T07:31:51;103449.06;;;19.70;47.37
46710;BME280;32442;51.514;-0.178;2023-02-04T07:34:18;103446.84;;;19.72;47.18
46710;BME280;32442;51.514;-0.178;2023-02-04T07:36:45;103451.72;;;19.77;47.47
46710;BME280;32442;51.514;-0.178;2023-02-04T07:39:13;103449.31;;;19.80;47.50
46710;BME280;32442;51.514;-0.178;2023-02-04T07:41:40;103446.59;;;19.85;47.55
46710;BME280;32442;51.514;-0.178;2023-02-04T07:44:06;103450.66;;;19.89;47.21
46710;BME280;32442;51.514;-0.178;2023-02-04T07:46:33;103454.69;;;19.93;47.18
46710;BME280;32442;51.514;-0.178;2023-02-04T07:49:00;103457.34;;;20.00;47.00
46710;BME280;32442;51.514;-0.178;2023-02-04T07:51:27;103460.53;;;20.04;47.54
46710;BME280;32442;51.514;-0.178;2023-02-04T07:53:55;103466.03;;;20.10;47.38
46710;BME280;32442;51.514;-0.178;2023-02-04T07:56:24;103465.28;;;20.15;47.16
46710;BME280;32442;51.514;-0.178;2023-02-04T07:58:52;103472.75;;;20.21;47.29
46710;BME280;32442;51.514;-0.178;2023-02-04T08:01:21;103472.88;;;20.26;47.64
46710;BME280;32442;51.514;-0.178;2023-02-04T08:03:48;103470.56;;;20.34;47.34
46710;BME280;32442;51.514;-0.178;2023-02-04T08:06:15;103473.50;;;20.39;47.22
46710;BME280;32442;51.514;-0.178;2023-02-04T08:08:41;103473.59;;;20.45;46.82
46710;BME280;32442;51.514;-0.178;2023-02-04T08:11:10;103481.91;;;20.51;46.77
46710;BME280;32442;51.514;-0.178;2023-02-04T08:13:37;103487.88;;;20.55;46.96
46710;BME280;32442;51.514;-0.178;2023-02-04T08:16:04;103487.75;;;20.61;46.28
46710;BME280;32442;51.514;-0.178;2023-02-04T08:18:31;103485.28;;;20.65;46.29
46710;BME280;32442;51.514;-0.178;2023-02-04T08:21:00;103483.47;;;20.70;46.27
46710;BME280;32442;51.514;-0.178;2023-02-04T08:23:27;103490.28;;;20.74;45.81
46710;BME280;32442;51.514;-0.178;2023-02-04T08:25:54;103493.44;;;20.78;45.70
46710;BME280;32442;51.514;-0.178;2023-02-04T08:28:21;103497.69;;;20.80;45.82
46710;BME280;32442;51.514;-0.178;2023-02-04T08:30:48;103501.75;;;20.84;45.44
46710;BME280;32442;51.514;-0.178;2023-02-04T08:33:15;103509.66;;;20.88;45.71
46710;BME280;32442;51.514;-0.178;2023-02-04T08:35:42;103507.44;;;20.90;45.23
46710;BME280;32442;51.514;-0.178;2023-02-04T08:38:09;103511.72;;;20.92;45.36
46710;BME280;32442;51.514;-0.178;2023-02-04T08:40:36;103510.13;;;20.96;45.21
46710;BME280;32442;51.514;-0.178;2023-02-04T08:43:03;103514.16;;;21.00;45.31
46710;BME280;32442;51.514;-0.178;2023-02-04T08:45:31;103517.56;;;21.02;45.21
46710;BME280;32442;51.514;-0.178;2023-02-04T08:47:58;103517.06;;;21.05;45.65
46710;BME280;32442;51.514;-0.178;2023-02-04T08:50:25;103520.50;;;21.07;45.47
46710;BME280;32442;51.514;-0.178;2023-02-04T08:52:52;103525.25;;;21.07;45.41
46710;BME280;32442;51.514;-0.178;2023-02-04T08:55:19;103523.03;;;21.09;44.80
46710;BME280;32442;51.514;-0.178;2023-02-04T08:57:47;103523.66;;;21.11;44.78
46710;BME280;32442;51.514;-0.178;2023-02-04T09:00:14;103528.19;;;21.12;44.81
46710;BME280;32442;51.514;-0.178;2023-02-04T09:02:42;103529.00;;;21.12;44.71
46710;BME280;32442;51.514;-0.178;2023-02-04T09:05:09;103528.19;;;21.12;44.38
46710;BME280;32442;51.514;-0.178;2023-02-04T09:07:36;103537.44;;;21.12;44.51
46710;BME280;32442;51.514;-0.178;2023-02-04T09:10:03;103541.13;;;21.13;44.22
46710;BME280;32442;51.514;-0.178;2023-02-04T09:12:30;103538.34;;;21.13;44.59
46710;BME280;32442;51.514;-0.178;2023-02-04T09:14:57;103538.56;;;21.11;44.55
46710;BME280;32442;51.514;-0.178;2023-02-04T09:17:24;103535.53;;;21.13;44.69
46710;BME280;32442;51.514;-0.178;2023-02-04T09:19:52;103540.25;;;21.12;44.67
46710;BME280;32442;51.514;-0.178;2023-02-04T09:22:19;103548.97;;;21.11;44.64
46710;BME280;32442;51.514;-0.178;2023-02-04T09:24:46;103541.00;;;21.08;44.54
46710;BME280;32442;51.514;-0.178;2023-02-04T09:27:12;103546.63;;;21.08;43.91
46710;BME280;32442;51.514;-0.178;2023-02-04T09:29:40;103536.50;;;21.07;43.54
46710;BME280;32442;51.514;-0.178;2023-02-04T09:32:06;103537.84;;;21.04;43.04
46710;BME280;32442;51.514;-0.178;2023-02-04T09:34:33;103534.78;;;21.06;43.09
46710;BME280;32442;51.514;-0.178;2023-02-04T09:37:00;103533.59;;;21.02;42.64
46710;BME280;32442;51.514;-0.178;2023-02-04T09:39:28;103536.63;;;21.00;42.72
46710;BME280;32442;51.514;-0.178;2023-02-04T09:41:55;103534.56;;;20.96;42.56
46710;BME280;32442;51.514;-0.178;2023-02-04T09:44:23;103538.47;;;20.95;42.30
46710;BME280;32442;51.514;-0.178;2023-02-04T09:46:51;103533.13;;;20.93;42.30
46710;BME280;32442;51.514;-0.178;2023-02-04T09:49:19;103537.03;;;20.92;42.05
46710;BME280;32442;51.514;-0.178;2023-02-04T09:51:46;103534.09;;;20.87;41.98
46710;BME280;32442;51.514;-0.178;2023-02-04T09:54:15;103541.09;;;20.84;42.04
46710;BME280;32442;51.514;-0.178;2023-02-04T09:56:42;103554.50;;;20.82;42.12
46710;BME280;32442;51.514;-0.178;2023-02-04T09:59:11;103555.88;;;20.80;42.07
46710;BME280;32442;51.514;-0.178;2023-02-04T10:01:38;103553.41;;;20.72;42.20
46710;BME280;32442;51.514;-0.178;2023-02-04T10:04:07;103561.50;;;20.68;42.26
46710;BME280;32442;51.514;-0.178;2023-02-04T10:06:35;103555.53;;;20.65;42.43
46710;BME280;32442;51.514;-0.178;2023-02-04T10:09:03;103555.28;;;20.66;42.70
46710;BME280;32442;51.514;-0.178;2023-02-04T10:11:31;103560.91;;;20.66;42.60
46710;BME280;32442;51.514;-0.178;2023-02-04T10:14:00;103562.22;;;20.64;42.76
46710;BME280;32442;51.514;-0.178;2023-02-04T10:16:27;103554.91;;;20.63;42.49
46710;BME280;32442;51.514;-0.178;2023-02-04T10:18:59;103556.50;;;20.59;42.37
46710;BME280;32442;51.514;-0.178;2023-02-04T10:21:28;103561.00;;;20.60;42.41
46710;BME280;32442;51.514;-0.178;2023-02-04T10:23:56;103557.84;;;20.56;42.58
46710;BME280;32442;51.514;-0.178;2023-02-04T10:26:25;103560.44;;;20.58;42.57
46710;BME280;32442;51.514;-0.178;2023-02-04T10:31:26;103568.16;;;20.09;40.04
46710;BME280;32442;51.514;-0.178;2023-02-04T10:36:23;103566.56;;;19.60;39.69
46710;BME280;32442;51.514;-0.178;2023-02-04T10:41:20;103575.34;;;19.34;40.31
46710;BME280;32442;51.514;-0.178;2023-02-04T10:43:54;103573.56;;;19.21;40.77
46710;BME280;32442;51.514;-0.178;2023-02-04T10:46:21;103582.44;;;19.00;40.42
46710;BME280;32442;51.514;-0.178;2023-02-04T10:48:49;103584.31;;;18.88;40.88
46710;BME280;32442;51.514;-0.178;2023-02-04T10:51:17;103590.47;;;18.78;40.91
46710;BME280;32442;51.514;-0.178;2023-02-04T10:53:44;103591.31;;;18.79;41.02
46710;BME280;32442;51.514;-0.178;2023-02-04T10:56:16;103586.25;;;18.69;41.54
46710;BME280;32442;51.514;-0.178;2023-02-04T10:58:43;103593.44;;;18.58;41.13
46710;BME280;32442;51.514;-0.178;2023-02-04T11:01:12;103599.53;;;18.49;41.92
46710;BME280;32442;51.514;-0.178;2023-02-04T11:03:39;103597.50;;;18.38;41.66
46710;BME280;32442;51.514;-0.178;2023-02-04T11:08:37;103593.59;;;18.20;42.20
46710;BME280;32442;51.514;-0.178;2023-02-04T11:11:06;103596.81;;;18.17;42.18
46710;BME280;32442;51.514;-0.178;2023-02-04T11:21:05;103589.34;;;18.11;41.87
46710;BME280;32442;51.514;-0.178;2023-02-04T11:23:40;103585.97;;;18.28;42.15
46710;BME280;32442;51.514;-0.178;2023-02-04T11:31:11;103587.47;;;18.55;42.96
46710;BME280;32442;51.514;-0.178;2023-02-04T11:33:40;103580.97;;;18.61;42.83
46710;BME280;32442;51.514;-0.178;2023-02-04T11:36:09;103579.78;;;18.69;43.05
46710;BME280;32442;51.514;-0.178;2023-02-04T11:38:43;103586.41;;;18.74;43.24
46710;BME280;32442;51.514;-0.178;2023-02-04T11:41:14;103580.13;;;18.79;43.50
46710;BME280;32442;51.514;-0.178;2023-02-04T11:43:42;103574.03;;;18.82;43.44
46710;BME280;32442;51.514;-0.178;2023-02-04T11:46:11;103586.47;;;18.86;43.26
46710;BME280;32442;51.514;-0.178;2023-02-04T11:48:39;103577.84;;;18.87;43.23
46710;BME280;32442;51.514;-0.178;2023-02-04T11:51:10;103582.75;;;18.92;43.49
46710;BME280;32442;51.514;-0.178;2023-02-04T11:53:37;103575.22;;;18.92;42.97
46710;BME280;32442;51.514;-0.178;2023-02-04T11:56:05;103589.59;;;18.96;43.30
46710;BME280;32442;51.514;-0.178;2023-02-04T11:58:33;103587.88;;;18.95;43.32
46710;BME280;32442;51.514;-0.178;2023-02-04T12:01:04;103591.81;;;18.94;43.47
46710;BME280;32442;51.514;-0.178;2023-02-04T12:03:34;103580.13;;;18.97;43.06
46710;BME280;32442;51.514;-0.178;2023-02-04T12:06:19;103583.53;;;18.99;43.20
46710;BME280;32442;51.514;-0.178;2023-02-04T12:08:46;103580.50;;;19.00;43.05
46710;BME280;32442;51.514;-0.178;2023-02-04T12:16:13;103582.59;;;19.05;43.31
46710;BME280;32442;51.514;-0.178;2023-02-04T12:18:40;103583.69;;;19.04;43.03
46710;BME280;32442;51.514;-0.178;2023-02-04T12:21:07;103587.97;;;19.06;43.11
46710;BME280;32442;51.514;-0.178;2023-02-04T12:23:34;103587.72;;;19.08;43.01
46710;BME280;32442;51.514;-0.178;2023-02-04T12:26:01;103581.28;;;19.07;42.99
46710;BME280;32442;51.514;-0.178;2023-02-04T12:28:28;103587.50;;;19.09;43.15
46710;BME280;32442;51.514;-0.178;2023-02-04T12:30:55;103587.72;;;19.08;43.30
46710;BME280;32442;51.514;-0.178;2023-02-04T12:33:23;103588.59;;;19.08;43.38
46710;BME280;32442;51.514;-0.178;2023-02-04T12:35:49;103592.41;;;19.14;43.00
46710;BME280;32442;51.514;-0.178;2023-02-04T12:38:17;103592.63;;;19.13;43.28
46710;BME280;32442;51.514;-0.178;2023-02-04T12:40:45;103599.34;;;19.12;43.38
46710;BME280;32442;51.514;-0.178;2023-02-04T12:43:13;103593.09;;;19.09;43.37
46710;BME280;32442;51.514;-0.178;2023-02-04T12:45:40;103590.94;;;19.12;43.05
46710;BME280;32442;51.514;-0.178;2023-02-04T12:48:12;103587.03;;;19.13;43.28
46710;BME280;32442;51.514;-0.178;2023-02-04T12:50:40;103582.97;;;19.08;43.21
46710;BME280;32442;51.514;-0.178;2023-02-04T12:53:08;103588.75;;;19.14;43.21
46710;BME280;32442;51.514;-0.178;2023-02-04T12:55:35;103593.97;;;19.10;43.34
46710;BME280;32442;51.514;-0.178;2023-02-04T12:58:02;103586.41;;;19.10;43.40
46710;BME280;32442;51.514;-0.178;2023-02-04T13:00:29;103596.53;;;19.12;43.43
46710;BME280;32442;51.514;-0.178;2023-02-04T13:02:56;103602.75;;;19.14;43.41
46710;BME280;32442;51.514;-0.178;2023-02-04T13:05:25;103605.81;;;19.12;43.42
46710;BME280;32442;51.514;-0.178;2023-02-04T13:07:55;103603.38;;;19.16;43.32
46710;BME280;32442;51.514;-0.178;2023-02-04T13:10:22;103605.81;;;19.12;43.43
46710;BME280;32442;51.514;-0.178;2023-02-04T13:12:50;103607.28;;;19.15;42.96
46710;BME280;32442;51.514;-0.178;2023-02-04T13:15:17;103610.94;;;19.15;42.99